createdAt,value
2019-02-02T00:03:12.558Z,26.25
2019-02-02T00:09:04.657Z,25.20
2019-02-02T00:14:10.318Z,25.65
2019-02-02T00:19:14.398Z,26.93
2019-02-02T00:24:22.493Z,26.82
2019-02-02T00:29:36.468Z,27.32
2019-02-02T00:34:43.141Z,24.47
2019-02-02T00:39:50.158Z,24.15
2019-02-02T00:44:54.383Z,28.75
2019-02-02T00:49:59.137Z,24.70
2019-02-02T00:55:03.423Z,28.65
2019-02-02T01:00:10.011Z,27.13
2019-02-02T01:05:17.605Z,33.23
2019-02-02T01:10:25.602Z,27.90
2019-02-02T01:15:30.393Z,25.13
2019-02-02T01:20:35.831Z,28.27
2019-02-02T01:25:40.096Z,27.52
2019-02-02T01:30:44.944Z,26.12
2019-02-02T01:35:49.189Z,30.43
2019-02-02T01:40:54.224Z,27.67
2019-02-02T01:45:58.531Z,26.40
2019-02-02T01:51:03.101Z,28.40
2019-02-02T01:56:07.382Z,38.73
2019-02-02T02:01:11.795Z,37.67
2019-02-02T02:06:16.335Z,31.70
2019-02-02T02:11:20.543Z,30.75
2019-02-02T02:16:25.002Z,25.75
2019-02-02T02:21:29.412Z,27.80
2019-02-02T02:26:33.707Z,29.23
2019-02-02T02:31:38.164Z,28.60
2019-02-02T02:36:42.857Z,35.20
2019-02-02T02:41:47.280Z,34.25
2019-02-02T02:46:51.486Z,32.17
2019-02-02T02:51:55.704Z,36.17
2019-02-02T02:57:04.412Z,34.70
2019-02-02T03:02:08.713Z,33.88
2019-02-02T03:07:12.902Z,33.98
2019-02-02T03:12:17.666Z,27.70
2019-02-02T03:17:24.519Z,25.23
2019-02-02T03:22:28.795Z,26.90
2019-02-02T03:27:33.134Z,30.97
2019-02-02T03:32:37.344Z,27.20
2019-02-02T03:37:41.691Z,30.10
2019-02-02T03:42:46.352Z,34.83
2019-02-02T03:47:52.198Z,31.93
2019-02-02T03:52:56.370Z,33.00
2019-02-02T03:58:00.800Z,34.80
2019-02-02T04:03:05.314Z,34.15
2019-02-02T04:08:09.924Z,36.42
2019-02-02T04:13:14.251Z,35.50
2019-02-02T04:18:18.575Z,34.65
2019-02-02T04:23:25.171Z,36.83
2019-02-02T04:28:29.588Z,33.30
2019-02-02T04:33:33.988Z,34.85
2019-02-02T11:38:37.782Z,46.70
2019-02-02T11:43:43.335Z,41.65
2019-02-02T11:48:47.615Z,41.68
2019-02-02T11:53:51.780Z,43.08
2019-02-02T11:58:57.300Z,37.23
2019-02-02T12:04:01.696Z,41.88
2019-02-02T12:09:09.941Z,43.83
2019-02-02T12:14:14.215Z,53.70
2019-02-02T12:19:18.459Z,44.55
2019-02-02T12:24:28.483Z,43.83
2019-02-02T12:29:32.852Z,48.10
2019-02-02T12:34:37.303Z,47.37
2019-02-02T12:39:41.662Z,48.17
2019-02-02T12:44:45.861Z,47.80
2019-02-02T12:49:50.199Z,44.85
2019-02-02T12:54:57.505Z,48.85
2019-02-02T13:00:01.949Z,49.38
2019-02-02T13:05:10.173Z,46.15
2019-02-02T13:10:19.650Z,44.83
2019-02-02T13:15:24.068Z,54.00
2019-02-02T13:20:28.616Z,47.03
2019-02-02T13:25:33.563Z,52.50
2019-02-02T13:30:41.189Z,50.30
2019-02-02T13:35:46.586Z,56.05
2019-02-02T13:40:51.047Z,51.77
2019-02-02T13:45:57.019Z,50.83
2019-02-02T13:51:05.989Z,46.35
2019-02-02T13:56:09.569Z,47.05
2019-02-02T14:01:24.099Z,44.67
2019-02-02T14:06:28.750Z,46.80
2019-02-02T14:11:33.092Z,45.40
2019-02-02T14:16:37.725Z,54.73
2019-02-02T14:21:45.223Z,47.00
2019-02-02T14:26:49.627Z,47.30
2019-02-02T14:31:54.448Z,46.48
2019-02-02T14:36:58.980Z,43.00
2019-02-02T14:42:03.546Z,45.60
2019-02-02T14:47:07.814Z,48.95
2019-02-02T14:52:13.375Z,50.70
2019-02-02T14:57:17.825Z,46.50
2019-02-02T15:02:22.920Z,46.95
2019-02-02T15:07:27.098Z,51.08
2019-02-02T15:12:31.387Z,46.93
2019-02-02T15:17:36.716Z,46.65
2019-02-02T15:22:42.874Z,44.05
2019-02-02T15:27:46.971Z,51.68
2019-02-02T15:32:54.149Z,46.28
2019-02-02T15:37:58.433Z,43.83
2019-02-02T15:43:02.658Z,48.20
2019-02-02T15:48:06.936Z,41.92
2019-02-02T15:53:11.261Z,49.48
2019-02-02T15:58:15.559Z,44.42
2019-02-02T16:03:19.692Z,44.13
2019-02-02T16:08:24.776Z,41.13
2019-02-02T16:13:29.031Z,44.85
2019-02-02T16:18:33.301Z,48.40
2019-02-02T16:30:06.776Z,51.80
2019-02-02T16:35:34.084Z,44.55
2019-02-02T16:40:40.048Z,46.63
2019-02-02T16:45:44.304Z,44.57
2019-02-02T16:50:51.861Z,46.20
2019-02-02T16:55:56.542Z,44.93
2019-02-02T17:01:00.802Z,39.98
2019-02-02T17:06:05.131Z,43.13
2019-02-02T17:11:09.879Z,46.57
2019-02-02T17:16:14.409Z,40.50
2019-02-02T17:21:18.802Z,43.83
2019-02-02T17:26:23.122Z,48.85
2019-02-02T17:31:27.427Z,43.23
2019-02-02T17:36:31.672Z,49.63
2019-02-02T23:46:08.223Z,67.42
2019-02-02T23:51:14.660Z,74.45
2019-02-02T23:56:22.169Z,72.97
